createdAt,value
2023-02-08T07:57:23.712Z,100999.81
2023-02-08T08:00:52.502Z,101014.28
2023-02-08T08:04:21.443Z,101012.56
2023-02-08T08:07:50.189Z,101022.13
2023-02-08T08:11:18.905Z,101023.84
2023-02-08T08:14:47.500Z,101026.72
2023-02-08T08:17:17.157Z,101043.91
2023-02-08T08:19:46.767Z,101043.56
2023-02-08T08:22:16.394Z,101045.56
2023-02-08T08:24:46.071Z,101045.38
2023-02-08T08:27:15.674Z,101052.13
2023-02-08T08:29:45.452Z,101050.25
2023-02-08T08:32:15.026Z,101064.06
2023-02-08T08:34:44.623Z,101068.25
2023-02-08T08:37:14.369Z,101072.91
2023-02-08T08:39:44.054Z,101083.94
2023-02-08T08:42:13.677Z,101075.84
2023-02-08T08:44:43.273Z,101086.75
2023-02-08T08:48:11.995Z,101094.97
2023-02-08T08:51:40.646Z,101101.47
2023-02-08T08:55:09.329Z,101105.31
2023-02-08T08:58:39.364Z,101108.81
2023-02-08T09:02:07.998Z,101110.38
2023-02-08T09:04:44.119Z,101116.34
2023-02-08T09:08:12.993Z,101120.66
2023-02-08T09:11:47.563Z,101124.53
2023-02-08T09:15:16.358Z,101127.75
2023-02-08T09:18:45.052Z,101136.06
2023-02-08T09:22:16.474Z,101142.56
2023-02-08T09:25:45.170Z,101144.09
2023-02-08T09:28:14.917Z,101162.00
2023-02-08T09:30:45.735Z,101162.59
2023-02-08T09:34:14.601Z,101160.28
2023-02-08T09:37:43.209Z,101161.91
2023-02-08T09:40:25.860Z,101167.44
2023-02-08T09:43:57.182Z,101173.16
2023-02-08T09:47:25.850Z,101186.38
2023-02-08T09:50:47.277Z,101186.63
2023-02-08T09:54:18.770Z,101197.66
2023-02-08T09:57:48.509Z,101200.09
2023-02-08T10:01:17.425Z,101208.09
2023-02-08T10:04:46.122Z,101210.81
2023-02-08T10:08:14.921Z,101216.31
2023-02-08T10:11:42.114Z,101218.47
2023-02-08T10:15:12.473Z,101217.03
2023-02-08T10:18:30.576Z,101215.38
2023-02-08T10:22:01.161Z,101223.94
2023-02-08T10:25:41.834Z,101230.47
2023-02-08T10:29:18.221Z,101239.94
2023-02-08T10:32:36.399Z,101237.25
2023-02-08T10:36:13.771Z,101237.16
2023-02-08T10:39:42.533Z,101243.91
2023-02-08T10:43:14.130Z,101241.22
2023-02-08T10:46:18.966Z,101246.75
2023-02-08T10:49:19.242Z,101249.56
2023-02-08T10:51:50.455Z,101254.09
2023-02-08T10:54:20.164Z,101255.91
2023-02-08T10:57:26.036Z,101249.00
2023-02-08T11:00:09.332Z,101252.53
2023-02-08T11:02:44.581Z,101244.78
2023-02-08T11:05:20.605Z,101251.97
2023-02-08T11:08:52.269Z,101251.28
2023-02-08T11:12:21.106Z,101246.91
2023-02-08T11:15:49.702Z,101249.72
2023-02-08T11:19:01.483Z,101258.75
2023-02-08T11:21:56.653Z,101253.81
2023-02-08T11:25:40.794Z,101252.13
2023-02-08T11:29:09.444Z,101263.44
2023-02-08T11:32:38.137Z,101257.50
2023-02-08T11:35:42.713Z,101262.56
2023-02-08T11:39:11.572Z,101259.31
2023-02-08T11:42:40.188Z,101264.41
2023-02-08T11:45:49.378Z,101264.25
2023-02-08T11:48:26.250Z,101259.75
2023-02-08T11:51:03.802Z,101267.34
2023-02-08T11:53:42.193Z,101258.19
2023-02-08T11:56:19.392Z,101250.00
2023-02-08T11:59:17.641Z,101251.16
2023-02-08T12:01:47.386Z,101248.44
2023-02-08T12:04:19.282Z,101250.59
2023-02-08T12:07:11.448Z,101255.25
2023-02-08T12:10:05.404Z,101254.81
2023-02-08T12:13:14.028Z,101251.94
2023-02-08T12:16:03.543Z,101245.59
2023-02-08T12:19:33.810Z,101242.50
2023-02-08T12:23:05.315Z,101245.72
2023-02-08T12:26:03.369Z,101254.00
2023-02-08T12:29:23.046Z,101246.28
2023-02-08T12:32:41.705Z,101235.00
2023-02-08T12:35:48.321Z,101243.47
2023-02-08T12:39:18.300Z,101250.38
2023-02-08T12:42:26.669Z,101256.03
2023-02-08T12:46:19.879Z,101254.44
2023-02-08T12:49:18.027Z,101257.25
2023-02-08T12:52:24.513Z,101259.09
2023-02-08T12:55:00.686Z,101259.09
2023-02-08T12:57:33.505Z,101255.47
2023-02-08T13:00:21.470Z,101244.88
2023-02-08T13:03:19.375Z,101235.88
2023-02-08T13:06:01.822Z,101248.13
2023-02-08T13:08:54.578Z,101245.88
2023-02-08T13:12:16.172Z,101247.09
2023-02-08T13:14:55.903Z,101241.44
2023-02-08T13:17:25.499Z,101243.28
2023-02-08T13:20:22.247Z,101239.19
2023-02-08T13:22:54.635Z,101231.88
2023-02-08T13:25:31.939Z,101238.38
2023-02-08T13:28:10.777Z,101232.59
2023-02-08T13:30:42.510Z,101235.00
2023-02-08T13:33:23.692Z,101241.19
2023-02-08T13:35:55.864Z,101240.47
2023-02-08T13:38:33.176Z,101234.53
2023-02-08T13:41:26.318Z,101228.63
2023-02-08T13:44:09.586Z,101225.66
2023-02-08T13:46:51.272Z,101220.13
2023-02-08T13:49:53.866Z,101229.16
2023-02-08T13:52:50.685Z,101226.63
2023-02-08T13:55:33.813Z,101229.66
2023-02-08T13:58:27.668Z,101232.22
2023-02-08T14:00:57.939Z,101234.19
2023-02-08T14:03:34.521Z,101232.63
2023-02-08T14:06:31.761Z,101233.59
2023-02-08T14:09:16.254Z,101231.34
2023-02-08T14:11:59.160Z,101228.69
2023-02-08T14:14:40.189Z,101222.03
2023-02-08T14:17:21.937Z,101235.41
2023-02-08T14:20:03.508Z,101243.59
2023-02-08T14:22:51.390Z,101244.97
2023-02-08T14:25:24.472Z,101248.22
2023-02-08T14:27:56.186Z,101257.94
2023-02-08T14:30:31.090Z,101262.56
2023-02-08T14:33:09.992Z,101257.34
2023-02-08T14:35:45.082Z,101254.81
2023-02-08T14:38:26.808Z,101260.44
2023-02-08T14:40:58.956Z,101265.50
2023-02-08T14:43:37.806Z,101266.50
2023-02-08T14:46:41.747Z,101275.13
2023-02-08T14:49:21.730Z,101279.75
2023-02-08T14:52:05.379Z,101295.09
2023-02-08T14:54:37.120Z,101293.53
2023-02-08T14:57:22.872Z,101294.06
2023-02-08T14:59:55.336Z,101306.59
2023-02-08T15:02:32.876Z,101316.72
2023-02-08T15:05:09.827Z,101317.81
2023-02-08T15:08:00.120Z,101311.63
2023-02-08T15:10:31.900Z,101316.00
2023-02-08T15:13:07.805Z,101325.13
2023-02-08T15:15:44.536Z,101333.44
2023-02-08T15:18:30.707Z,101326.00
2023-02-08T15:22:02.427Z,101315.94
2023-02-08T15:25:31.376Z,101317.66
2023-02-08T15:29:03.131Z,101316.94
2023-02-08T15:32:30.775Z,101312.28
2023-02-08T15:35:59.392Z,101321.44
2023-02-08T15:39:28.116Z,101307.72
2023-02-08T15:42:56.787Z,101314.03
2023-02-08T15:46:25.444Z,101304.22
2023-02-08T15:49:57.159Z,101293.66
2023-02-08T15:52:38.629Z,101296.56
2023-02-08T15:55:14.853Z,101300.53
2023-02-08T15:58:17.843Z,101298.72
2023-02-08T16:00:48.624Z,101299.28
2023-02-08T16:04:17.513Z,101300.03
2023-02-08T16:07:47.544Z,101300.75
2023-02-08T16:11:22.144Z,101293.94
2023-02-08T16:14:52.835Z,101288.59
2023-02-08T16:18:26.211Z,101290.44
2023-02-08T16:22:01.025Z,101289.34
2023-02-08T16:25:29.686Z,101289.59
2023-02-08T16:28:58.327Z,101293.22
2023-02-08T16:32:27.289Z,101293.50
2023-02-08T16:36:01.585Z,101283.06
2023-02-08T16:39:30.558Z,101279.28
2023-02-08T16:42:19.768Z,101284.03
2023-02-08T16:46:00.829Z,101280.91
2023-02-08T16:49:09.749Z,101287.97
2023-02-08T16:52:38.419Z,101295.97
2023-02-08T17:11:06.572Z,101295.19
2023-02-08T17:13:36.171Z,101287.41
2023-02-08T17:16:06.008Z,101289.13
2023-02-08T17:18:35.711Z,101285.44
2023-02-08T17:21:05.446Z,101281.69
2023-02-08T17:23:35.159Z,101283.94
2023-02-08T17:26:04.850Z,101285.31
2023-02-08T17:28:36.097Z,101284.94
2023-02-08T17:31:06.664Z,101284.94
2023-02-08T17:33:39.046Z,101290.28
2023-02-08T17:36:10.658Z,101296.59
2023-02-08T17:38:41.402Z,101299.03
2023-02-08T17:41:23.496Z,101305.22
2023-02-08T17:43:55.402Z,101299.75
2023-02-08T17:46:28.686Z,101293.94
2023-02-08T17:49:00.980Z,101292.97
2023-02-08T17:51:31.351Z,101286.31
2023-02-08T17:54:01.319Z,101283.75
2023-02-08T17:56:32.942Z,101279.00
2023-02-08T17:59:03.464Z,101276.91
2023-02-08T18:01:33.690Z,101291.84
2023-02-08T18:04:03.501Z,101298.16
2023-02-08T18:06:33.355Z,101297.31
2023-02-08T18:09:02.912Z,101292.09
2023-02-08T18:11:34.066Z,101302.66
2023-02-08T18:14:03.572Z,101302.66
2023-02-08T18:16:33.683Z,101302.91
2023-02-08T18:19:03.374Z,101307.84
2023-02-08T18:21:34.567Z,101306.84
2023-02-08T18:24:08.118Z,101300.66
2023-02-08T18:26:37.971Z,101295.53
2023-02-08T18:29:08.568Z,101300.91
2023-02-08T18:31:38.995Z,101297.25
2023-02-08T18:34:08.844Z,101310.03
2023-02-08T18:36:38.542Z,101305.41
2023-02-08T18:39:07.970Z,101309.91
2023-02-08T18:41:37.482Z,101300.31
2023-02-08T18:44:06.955Z,101303.13
2023-02-08T18:46:36.428Z,101308.47
2023-02-08T18:49:07.312Z,101312.38
2023-02-08T18:51:37.096Z,101317.47
2023-02-08T18:54:08.531Z,101312.13
2023-02-08T18:56:38.146Z,101308.84
2023-02-08T18:59:07.876Z,101312.00
2023-02-08T19:01:37.486Z,101322.56
2023-02-08T19:04:07.520Z,101331.56
2023-02-08T19:06:40.171Z,101323.53
2023-02-08T19:09:10.093Z,101329.88
2023-02-08T19:11:41.631Z,101336.91
2023-02-08T19:14:15.993Z,101334.34
2023-02-08T19:16:45.920Z,101327.31
2023-02-08T19:19:15.610Z,101323.94
2023-02-08T19:21:45.002Z,101325.13
2023-02-08T19:24:15.711Z,101323.22
2023-02-08T19:26:45.212Z,101330.25
2023-02-08T19:29:17.101Z,101326.59
2023-02-08T19:31:47.702Z,101319.66
2023-02-08T19:34:18.852Z,101320.53
2023-02-08T19:36:54.153Z,101325.88
2023-02-08T19:39:28.749Z,101331.22
2023-02-08T19:42:00.015Z,101318.72
2023-02-08T19:44:30.799Z,101308.00
2023-02-08T19:47:00.803Z,101296.47
2023-02-08T19:49:30.383Z,101300.25
2023-02-08T19:52:00.104Z,101294.19
2023-02-08T19:54:29.606Z,101297.69
2023-02-08T19:56:59.058Z,101290.53
2023-02-08T19:59:35.200Z,101288.81
2023-02-08T20:02:05.247Z,101283.47
2023-02-08T20:04:34.859Z,101291.38
2023-02-08T20:07:04.349Z,101287.72
2023-02-08T20:09:34.654Z,101287.75
2023-02-08T20:12:04.534Z,101277.16
2023-02-08T20:14:34.222Z,101280.94
2023-02-08T20:17:05.236Z,101281.78
2023-02-08T20:19:38.753Z,101278.72
2023-02-08T20:22:07.845Z,101282.00
2023-02-08T20:24:37.521Z,101281.06
2023-02-08T20:27:07.197Z,101279.84
2023-02-08T20:29:36.723Z,101286.16
2023-02-08T20:32:06.428Z,101297.81
2023-02-08T20:34:37.137Z,101290.91
2023-02-08T20:37:08.249Z,101294.56
2023-02-08T20:39:38.914Z,101293.22
2023-02-08T20:42:08.693Z,101300.28
2023-02-08T20:44:38.283Z,101297.63
2023-02-08T20:47:07.892Z,101289.84
2023-02-08T20:49:37.770Z,101286.34
2023-02-08T20:52:07.872Z,101290.13
2023-02-08T20:54:37.596Z,101292.91
2023-02-08T20:57:07.200Z,101293.88
2023-02-08T20:59:36.958Z,101302.63
2023-02-08T21:02:07.237Z,101299.09
2023-02-08T21:04:38.235Z,101301.19
2023-02-08T21:07:07.793Z,101302.00
2023-02-08T21:09:37.272Z,101303.84
2023-02-08T21:12:06.959Z,101310.44
2023-02-08T21:14:37.546Z,101322.69
2023-02-08T21:17:07.467Z,101323.78
2023-02-08T21:19:36.980Z,101317.59
2023-02-08T21:22:06.635Z,101306.03
2023-02-08T21:24:36.099Z,101303.25
2023-02-08T21:27:05.609Z,101297.72
2023-02-08T21:30:34.271Z,101303.66
2023-02-08T21:34:02.878Z,101299.13
2023-02-08T21:37:31.526Z,101293.09
2023-02-08T21:41:00.047Z,101296.88
2023-02-08T21:44:28.609Z,101306.56
2023-02-08T21:47:57.281Z,101316.66
2023-02-08T21:51:24.034Z,101327.34
2023-02-08T21:55:04.620Z,101331.72
2023-02-08T21:58:33.268Z,101333.66
2023-02-08T22:01:02.760Z,101336.47
2023-02-08T22:04:31.380Z,101342.88
2023-02-08T22:07:59.954Z,101330.72
2023-02-08T22:11:28.572Z,101330.59
2023-02-08T22:14:57.499Z,101348.59
2023-02-08T22:18:26.041Z,101359.03
2023-02-08T22:21:54.580Z,101366.19
2023-02-08T22:25:23.145Z,101351.50
2023-02-08T22:28:51.635Z,101355.00
2023-02-08T22:32:20.181Z,101365.56
2023-02-08T22:35:29.155Z,101367.28
2023-02-08T22:38:57.808Z,101357.94
2023-02-08T22:42:26.300Z,101368.38
2023-02-08T22:45:54.846Z,101370.31
2023-02-08T22:49:23.371Z,101371.19
2023-02-08T22:52:51.922Z,101366.78
2023-02-08T22:56:20.486Z,101369.34
